createdAt,value
2023-04-05T00:00:32.469Z,1.63
2023-04-05T00:03:00.199Z,0.80
2023-04-05T00:05:34.389Z,0.70
2023-04-05T00:08:02.438Z,1.17
2023-04-05T00:10:30.771Z,0.60
2023-04-05T00:13:01.110Z,1.03
2023-04-05T00:15:28.178Z,0.60
2023-04-05T00:17:55.566Z,0.77
2023-04-05T00:20:22.757Z,0.90
2023-04-05T00:22:50.789Z,0.70
2023-04-05T00:25:18.387Z,0.60
2023-04-05T00:27:45.489Z,0.70
2023-04-05T00:30:12.983Z,0.90
2023-04-05T00:32:39.907Z,0.63
2023-04-05T00:35:07.348Z,0.70
2023-04-05T00:37:34.468Z,0.73
2023-04-05T00:40:01.435Z,0.70
2023-04-05T00:42:28.348Z,1.10
2023-04-05T00:44:55.688Z,0.70
2023-04-05T00:47:22.827Z,0.83
2023-04-05T00:49:50.702Z,1.10
2023-04-05T00:52:19.474Z,0.60
2023-04-05T00:54:46.506Z,0.70
2023-04-05T00:57:13.874Z,0.67
2023-04-05T00:59:41.048Z,0.50
2023-04-05T01:02:24.610Z,0.60
2023-04-05T01:05:01.509Z,0.90
2023-04-05T01:07:51.070Z,0.50
2023-04-05T01:10:22.222Z,0.80
2023-04-05T01:12:49.556Z,0.80
2023-04-05T01:15:18.891Z,0.77
2023-04-05T01:17:47.051Z,0.63
2023-04-05T01:20:15.222Z,0.90
2023-04-05T01:23:00.396Z,0.80
2023-04-05T01:25:39.151Z,0.80
2023-04-05T01:28:43.255Z,0.80
2023-04-05T01:31:37.856Z,0.70
2023-04-05T01:34:30.424Z,0.60
2023-04-05T01:37:01.984Z,0.90
2023-04-05T01:39:30.104Z,0.77
2023-04-05T01:42:01.463Z,0.70
2023-04-05T01:44:29.248Z,1.23
2023-04-05T01:46:56.336Z,0.87
2023-04-05T01:49:24.753Z,0.70
2023-04-05T01:51:51.805Z,0.50
2023-04-05T01:54:18.709Z,0.77
2023-04-05T01:56:46.162Z,0.90
2023-04-05T01:59:13.218Z,0.70
2023-04-05T02:01:40.369Z,0.70
2023-04-05T02:04:07.357Z,0.43
2023-04-05T02:06:34.270Z,0.70
2023-04-05T02:09:01.484Z,0.87
2023-04-05T02:11:28.388Z,0.80
2023-04-05T02:13:55.306Z,0.70
2023-04-05T02:16:22.640Z,0.77
2023-04-05T02:18:51.125Z,0.70
2023-04-05T02:21:18.240Z,0.50
2023-04-05T02:23:45.394Z,0.70
2023-04-05T02:26:12.320Z,0.60
2023-04-05T02:28:39.281Z,0.67
2023-04-05T02:31:11.157Z,0.60
2023-04-05T02:33:39.054Z,1.00
2023-04-05T02:36:11.203Z,0.80
2023-04-05T02:38:38.179Z,0.63
2023-04-05T02:41:08.883Z,0.87
2023-04-05T02:43:35.956Z,0.60
2023-04-05T02:46:02.915Z,0.70
2023-04-05T02:48:30.892Z,1.10
2023-04-05T02:50:57.975Z,0.53
2023-04-05T02:53:24.911Z,0.67
2023-04-05T02:55:53.442Z,1.03
2023-04-05T02:58:20.804Z,1.00
2023-04-05T03:00:52.936Z,0.73
2023-04-05T03:03:21.030Z,0.70
2023-04-05T03:05:49.510Z,0.90
2023-04-05T03:08:19.726Z,0.73
2023-04-05T03:10:47.331Z,0.93
2023-04-05T03:13:14.959Z,0.73
2023-04-05T03:15:42.589Z,0.90
2023-04-05T03:18:10.327Z,0.87
2023-04-05T03:20:41.481Z,0.80
2023-04-05T03:23:09.050Z,0.80
2023-04-05T03:25:40.657Z,0.83
2023-04-05T03:28:10.727Z,0.80
2023-04-05T03:30:37.612Z,1.10
2023-04-05T03:33:04.714Z,0.77
2023-04-05T03:35:31.643Z,0.80
2023-04-05T03:37:58.587Z,0.60
2023-04-05T03:40:25.574Z,1.37
2023-04-05T03:42:52.513Z,0.67
2023-04-05T03:45:23.958Z,0.90
2023-04-05T03:47:51.772Z,0.70
2023-04-05T03:50:18.911Z,0.70
2023-04-05T03:52:46.439Z,0.70
2023-04-05T03:55:13.714Z,0.80
2023-04-05T03:57:41.772Z,1.00
2023-04-05T04:00:14.356Z,0.90
2023-04-05T04:02:45.675Z,1.00
2023-04-05T04:05:13.780Z,0.60
2023-04-05T04:07:41.906Z,0.67
2023-04-05T04:10:10.890Z,0.90
2023-04-05T04:12:38.703Z,0.90
2023-04-05T04:15:06.208Z,0.83
2023-04-05T04:17:35.316Z,1.47
2023-04-05T04:20:02.638Z,0.70
2023-04-05T04:22:38.845Z,0.90
2023-04-05T04:25:10.617Z,0.90
2023-04-05T04:27:40.070Z,1.00
2023-04-05T04:30:10.389Z,0.70
2023-04-05T04:32:52.174Z,0.80
2023-04-05T04:35:27.875Z,1.33
2023-04-05T04:38:03.431Z,1.07
2023-04-05T04:40:40.193Z,0.90
2023-04-05T04:43:14.478Z,0.70
2023-04-05T04:45:41.889Z,1.20
2023-04-05T04:48:09.940Z,1.73
2023-04-05T04:50:37.681Z,3.20
2023-04-05T04:53:04.806Z,0.70
2023-04-05T04:55:33.505Z,0.70
2023-04-05T04:58:00.601Z,0.90
2023-04-05T05:00:27.683Z,0.73
2023-04-05T05:02:56.239Z,0.90
2023-04-05T05:05:23.356Z,0.97
2023-04-05T05:07:52.820Z,0.90
2023-04-05T05:10:21.002Z,1.10
2023-04-05T05:12:51.751Z,0.93
2023-04-05T05:15:19.630Z,0.73
2023-04-05T05:17:47.229Z,1.40
2023-04-05T05:20:14.219Z,0.80
2023-04-05T05:22:41.248Z,0.97
2023-04-05T05:25:09.986Z,0.90
2023-04-05T05:27:36.904Z,0.93
2023-04-05T05:30:05.101Z,0.90
2023-04-05T05:32:32.085Z,0.77
2023-04-05T05:34:59.086Z,1.07
2023-04-05T05:37:33.004Z,0.97
2023-04-05T05:40:00.497Z,0.97
2023-04-05T05:42:27.703Z,1.17
2023-04-05T05:44:54.667Z,1.20
2023-04-05T05:47:21.883Z,1.00
2023-04-05T05:49:49.702Z,1.20
2023-04-05T05:52:17.056Z,1.03
2023-04-05T05:54:44.006Z,1.17
2023-04-05T05:57:11.010Z,0.90
2023-04-05T05:59:37.945Z,1.20
2023-04-05T06:02:04.909Z,0.87
2023-04-05T06:04:31.936Z,1.20
2023-04-05T06:06:59.163Z,1.00
2023-04-05T06:09:26.433Z,1.53
2023-04-05T06:11:56.992Z,1.40
2023-04-05T06:14:24.794Z,0.90
2023-04-05T06:16:51.698Z,1.47
2023-04-05T06:19:18.622Z,1.10
2023-04-05T06:21:45.709Z,1.13
2023-04-05T06:24:12.719Z,1.33
2023-04-05T06:26:39.645Z,0.93
2023-04-05T06:29:06.595Z,0.80
2023-04-05T06:31:35.787Z,0.90
2023-04-05T06:34:03.396Z,1.07
2023-04-05T06:36:32.244Z,0.93
2023-04-05T06:38:59.702Z,1.00
2023-04-05T06:41:27.830Z,0.90
2023-04-05T06:43:56.102Z,1.00
2023-04-05T06:46:23.572Z,1.00
2023-04-05T06:48:51.618Z,0.93
2023-04-05T06:51:19.175Z,1.00
2023-04-05T06:53:46.210Z,1.40
2023-04-05T06:56:13.560Z,1.00
2023-04-05T06:58:40.567Z,1.10
2023-04-05T07:01:07.727Z,1.00
2023-04-05T07:03:34.813Z,0.80
2023-04-05T07:06:02.713Z,1.60
2023-04-05T07:08:32.268Z,1.00
2023-04-05T07:10:59.333Z,0.90
2023-04-05T07:13:26.599Z,0.70
2023-04-05T07:16:01.149Z,1.43
2023-04-05T07:18:28.442Z,1.40
2023-04-05T07:21:00.324Z,0.80
2023-04-05T07:23:28.335Z,0.70
2023-04-05T07:25:59.238Z,1.07
2023-04-05T07:28:26.213Z,1.10
2023-04-05T07:30:53.141Z,0.97
2023-04-05T07:33:21.062Z,1.00
2023-04-05T07:35:55.631Z,0.70
2023-04-05T07:38:23.091Z,1.07
2023-04-05T07:40:50.949Z,0.97
2023-04-05T07:43:19.570Z,0.70
2023-04-05T07:45:46.532Z,1.10
2023-04-05T07:48:13.464Z,1.10
2023-04-05T07:50:41.401Z,0.70
2023-04-05T07:53:08.679Z,0.70
2023-04-05T07:55:38.728Z,0.70
2023-04-05T07:58:05.658Z,0.80
2023-04-05T08:00:32.627Z,0.90
2023-04-05T08:03:02.169Z,0.70
2023-04-05T08:05:29.675Z,0.80
2023-04-05T08:07:58.399Z,0.90
2023-04-05T08:10:26.225Z,0.90
2023-04-05T08:12:54.297Z,0.60
2023-04-05T08:15:21.481Z,0.70
2023-04-05T08:17:48.573Z,0.90
2023-04-05T08:20:15.745Z,1.03
2023-04-05T08:22:43.037Z,1.10
2023-04-05T08:25:10.262Z,0.87
2023-04-05T08:27:37.236Z,0.90
2023-04-05T08:30:04.741Z,0.80
2023-04-05T08:32:33.005Z,1.20
2023-04-05T08:35:00.401Z,0.80
2023-04-05T08:37:27.936Z,1.00
2023-04-05T08:39:55.270Z,1.00
2023-04-05T08:42:37.200Z,1.10
2023-04-05T08:45:08.301Z,0.90
2023-04-05T08:47:37.417Z,0.83
2023-04-05T08:50:05.252Z,0.83
2023-04-05T08:52:33.384Z,0.80
2023-04-05T08:55:00.365Z,0.73
2023-04-05T08:57:31.026Z,1.00
2023-04-05T09:00:01.398Z,0.63
2023-04-05T09:02:29.476Z,1.40
2023-04-05T09:04:57.764Z,0.80
2023-04-05T09:07:28.131Z,0.90
2023-04-05T09:09:55.518Z,0.90
2023-04-05T09:12:22.962Z,1.20
2023-04-05T09:14:50.689Z,1.10
2023-04-05T09:17:21.482Z,1.40
2023-04-05T09:19:51.360Z,1.20
2023-04-05T09:22:21.191Z,0.83
2023-04-05T09:24:48.098Z,1.30
2023-04-05T09:27:17.596Z,0.93
2023-04-05T09:29:49.081Z,1.17
2023-04-05T09:32:21.432Z,0.93
2023-04-05T09:34:48.623Z,1.10
2023-04-05T09:37:17.450Z,1.00
2023-04-05T09:39:45.740Z,0.97
2023-04-05T09:42:15.664Z,0.73
2023-04-05T09:44:55.092Z,0.90
2023-04-05T09:47:31.262Z,1.40
2023-04-05T09:50:28.241Z,0.87
2023-04-05T09:53:18.700Z,0.67
2023-04-05T09:55:45.674Z,1.00
2023-04-05T09:58:22.664Z,1.20
2023-04-05T10:01:06.288Z,0.80
2023-04-05T10:03:48.369Z,0.90
2023-04-05T10:06:19.042Z,0.90
2023-04-05T10:08:47.609Z,1.10
2023-04-05T10:11:17.959Z,1.40
2023-04-05T10:13:46.004Z,0.90
2023-04-05T10:16:21.189Z,0.83
2023-04-05T10:18:52.035Z,1.13
2023-04-05T10:21:23.868Z,1.07
2023-04-05T10:24:01.463Z,1.10
2023-04-05T10:26:48.923Z,1.13
2023-04-05T10:29:28.806Z,1.10
2023-04-05T10:32:04.670Z,1.20
2023-04-05T10:34:56.037Z,1.30
2023-04-05T10:38:03.865Z,1.03
2023-04-05T10:40:34.275Z,1.03
2023-04-05T10:43:01.441Z,1.33
2023-04-05T10:45:29.277Z,1.40
2023-04-05T10:48:25.249Z,1.57
2023-04-05T10:50:53.073Z,1.37
2023-04-05T10:53:22.201Z,1.47
2023-04-05T10:55:50.789Z,1.47
2023-04-05T10:58:18.570Z,1.17
2023-04-05T11:00:49.399Z,1.10
2023-04-05T11:03:41.852Z,1.10
2023-04-05T11:06:30.593Z,1.23
2023-04-05T11:09:17.017Z,0.97
2023-04-05T11:11:50.096Z,1.33
2023-04-05T11:14:37.314Z,1.10
2023-04-05T11:17:04.736Z,0.93
2023-04-05T11:19:43.923Z,1.20
2023-04-05T11:22:11.320Z,0.83
2023-04-05T11:25:04.558Z,1.23
2023-04-05T11:27:37.567Z,1.00
2023-04-05T11:30:06.502Z,1.20
2023-04-05T11:32:45.750Z,1.07
2023-04-05T11:35:23.490Z,1.23
2023-04-05T11:38:02.129Z,1.10
2023-04-05T11:40:37.047Z,1.10
2023-04-05T11:43:10.360Z,0.73
2023-04-05T11:45:39.400Z,1.10
2023-04-05T11:48:07.931Z,1.30
2023-04-05T11:50:36.869Z,1.20
2023-04-05T11:53:17.605Z,1.13
2023-04-05T11:55:47.080Z,1.10
2023-04-05T11:58:24.375Z,1.30
2023-04-05T12:01:02.753Z,1.23
2023-04-05T12:03:30.476Z,1.33
2023-04-05T12:06:02.295Z,0.90
2023-04-05T12:08:42.475Z,1.37
2023-04-05T12:11:13.395Z,1.20
2023-04-05T12:13:40.531Z,1.10
2023-04-05T12:16:09.556Z,1.03
2023-04-05T12:18:37.716Z,0.93
2023-04-05T12:21:13.624Z,1.20
2023-04-05T12:23:40.770Z,1.20
2023-04-05T12:26:08.429Z,1.00
2023-04-05T12:28:55.967Z,0.93
2023-04-05T12:31:45.533Z,0.97
2023-04-05T12:34:14.528Z,0.90
2023-04-05T12:36:46.270Z,1.20
2023-04-05T12:39:15.837Z,0.83
2023-04-05T12:41:42.882Z,1.20
2023-04-05T12:44:16.103Z,0.73
2023-04-05T12:46:47.614Z,1.00
2023-04-05T12:49:18.741Z,0.80
2023-04-05T12:51:46.930Z,1.20
2023-04-05T12:54:15.002Z,0.83
2023-04-05T12:56:42.602Z,1.10
2023-04-05T12:59:09.830Z,0.90
2023-04-05T13:01:37.961Z,1.07
2023-04-05T13:04:15.558Z,1.10
2023-04-05T13:06:44.688Z,1.23
2023-04-05T13:09:11.570Z,0.90
2023-04-05T13:11:38.531Z,1.20
2023-04-05T13:14:05.644Z,0.90
2023-04-05T13:16:32.576Z,0.80
2023-04-05T13:18:59.539Z,1.10
2023-04-05T13:21:27.326Z,1.40
2023-04-05T13:23:54.325Z,1.30
2023-04-05T13:26:21.910Z,0.80
2023-04-05T13:28:48.948Z,1.43
2023-04-05T13:31:16.213Z,1.23
2023-04-05T13:33:43.640Z,1.10
2023-04-05T13:36:12.543Z,1.07
2023-04-05T13:38:40.068Z,1.30
2023-04-05T13:41:07.159Z,1.30
2023-04-05T13:43:34.374Z,0.83
2023-04-05T13:46:01.313Z,1.10
2023-04-05T13:48:28.299Z,1.10
2023-04-05T13:50:55.648Z,1.23
2023-04-05T13:53:22.594Z,0.90
2023-04-05T13:55:49.551Z,0.90
2023-04-05T13:58:16.590Z,1.33
2023-04-05T14:00:43.926Z,0.97
2023-04-05T14:03:11.413Z,1.10
2023-04-05T14:05:38.409Z,1.37
2023-04-05T14:08:05.349Z,1.30
2023-04-05T14:10:32.551Z,1.13
2023-04-05T14:12:59.470Z,1.20
2023-04-05T14:15:27.682Z,1.33
2023-04-05T14:17:54.675Z,1.40
2023-04-05T14:20:21.708Z,1.10
2023-04-05T14:22:48.683Z,1.00
2023-04-05T14:25:15.739Z,1.10
2023-04-05T14:27:42.920Z,1.23
2023-04-05T14:30:11.386Z,1.17
2023-04-05T14:32:38.744Z,1.50
2023-04-05T14:35:06.339Z,1.47
2023-04-05T14:37:33.317Z,1.40
2023-04-05T14:40:00.296Z,1.23
2023-04-05T14:42:37.198Z,1.20
2023-04-05T14:45:09.272Z,1.30
2023-04-05T14:47:36.221Z,1.30
2023-04-05T14:50:03.282Z,1.20
2023-04-05T14:52:30.691Z,1.50
2023-04-05T14:54:57.680Z,1.47
2023-04-05T14:57:24.620Z,1.33
2023-04-05T14:59:51.524Z,1.20
2023-04-05T15:02:18.590Z,1.50
2023-04-05T15:04:45.664Z,1.00
2023-04-05T15:07:13.177Z,1.00
2023-04-05T15:09:40.116Z,1.30
2023-04-05T15:12:07.222Z,1.03
2023-04-05T15:14:34.160Z,1.33
2023-04-05T15:17:01.197Z,1.10
2023-04-05T15:19:28.403Z,1.00
2023-04-05T15:21:55.867Z,1.27
2023-04-05T15:24:22.829Z,1.00
2023-04-05T15:26:49.828Z,1.13
2023-04-05T15:29:16.819Z,0.90
2023-04-05T15:31:43.855Z,1.33
2023-04-05T15:34:11.024Z,1.40
2023-04-05T15:36:38.055Z,1.30
2023-04-05T15:39:05.273Z,1.00
2023-04-05T15:41:33.748Z,2.60
2023-04-05T15:44:01.046Z,4.60
2023-04-05T15:46:29.290Z,2.67
2023-04-05T15:48:56.329Z,3.20
2023-04-05T15:51:23.668Z,2.10
2023-04-05T15:53:51.335Z,1.23
2023-04-05T15:56:18.388Z,1.40
2023-04-05T15:58:45.586Z,1.23
2023-04-05T16:01:13.102Z,1.30
2023-04-05T16:03:40.703Z,3.70
2023-04-05T16:06:07.994Z,1.80
2023-04-05T16:08:35.096Z,5.83
2023-04-05T16:11:02.211Z,1.33
2023-04-05T16:13:29.264Z,1.50
2023-04-05T16:15:56.343Z,1.10
2023-04-05T16:18:24.381Z,1.20
2023-04-05T16:20:51.350Z,1.40
2023-04-05T16:23:18.323Z,1.43
2023-04-05T16:25:45.273Z,1.27
2023-04-05T16:28:12.529Z,1.30
2023-04-05T16:30:39.749Z,1.30
2023-04-05T16:33:06.772Z,1.70
2023-04-05T16:35:34.339Z,2.10
2023-04-05T16:38:02.686Z,1.13
2023-04-05T16:40:29.987Z,1.20
2023-04-05T16:42:57.016Z,2.20
2023-04-05T16:45:24.182Z,2.57
2023-04-05T16:47:51.483Z,1.53
2023-04-05T16:50:18.550Z,2.20
2023-04-05T16:52:46.271Z,3.30
2023-04-05T16:55:13.225Z,2.13
2023-04-05T16:57:40.474Z,2.03
2023-04-05T17:00:08.171Z,1.47
2023-04-05T17:02:35.190Z,1.33
2023-04-05T17:05:02.275Z,2.00
2023-04-05T17:07:29.295Z,2.47
2023-04-05T17:09:58.003Z,2.00
2023-04-05T17:12:25.013Z,2.10
2023-04-05T17:14:51.951Z,1.87
2023-04-05T17:17:18.867Z,3.10
2023-04-05T17:19:45.792Z,2.23
2023-04-05T17:22:13.766Z,1.40
2023-04-05T17:24:40.824Z,2.77
2023-04-05T17:27:07.802Z,2.40
2023-04-05T17:29:34.754Z,1.97
2023-04-05T17:32:01.885Z,2.03
2023-04-05T17:34:28.866Z,1.50
2023-04-05T17:36:56.075Z,1.60
2023-04-05T17:39:23.090Z,1.70
2023-04-05T17:41:51.010Z,1.43
2023-04-05T17:44:19.072Z,1.57
2023-04-05T17:46:53.943Z,1.80
2023-04-05T17:49:28.770Z,1.50
2023-04-05T17:51:55.867Z,1.50
2023-04-05T17:54:22.825Z,1.23
2023-04-05T17:56:50.140Z,1.70
2023-04-05T17:59:17.162Z,1.70
2023-04-05T18:01:44.196Z,1.40
2023-04-05T18:04:12.685Z,1.90
2023-04-05T18:06:39.880Z,1.50
2023-04-05T18:09:08.656Z,1.70
2023-04-05T18:11:36.626Z,1.30
2023-04-05T18:14:03.780Z,2.67
2023-04-05T18:16:32.423Z,4.13
2023-04-05T18:18:59.423Z,6.33
2023-04-05T18:21:27.111Z,22.77
2023-04-05T18:23:54.080Z,13.07
2023-04-05T18:26:21.319Z,20.53
2023-04-05T18:28:49.100Z,29.23
2023-04-05T18:31:16.334Z,7.07
2023-04-05T18:33:43.304Z,4.73
2023-04-05T18:36:10.486Z,3.93
2023-04-05T18:38:37.427Z,2.73
2023-04-05T18:41:04.672Z,3.10
2023-04-05T18:43:31.713Z,2.20
2023-04-05T18:45:58.725Z,2.73
2023-04-05T18:48:25.780Z,1.93
2023-04-05T18:50:56.113Z,1.40
2023-04-05T18:53:23.711Z,2.00
2023-04-05T18:55:51.934Z,1.70
2023-04-05T18:58:18.930Z,1.50
2023-04-05T19:00:45.967Z,1.90
2023-04-05T19:03:13.047Z,1.70
2023-04-05T19:05:40.051Z,1.50
2023-04-05T19:08:07.099Z,1.37
2023-04-05T19:10:34.075Z,1.73
2023-04-05T19:13:01.010Z,1.63
2023-04-05T19:15:28.022Z,1.80
2023-04-05T19:17:55.113Z,1.90
2023-04-05T19:20:22.129Z,2.20
2023-04-05T19:22:49.137Z,4.80
2023-04-05T19:25:16.166Z,2.90
2023-04-05T19:27:43.141Z,3.87
2023-04-05T19:30:10.518Z,2.00
2023-04-05T19:32:37.653Z,3.33
2023-04-05T19:35:06.967Z,5.97
2023-04-05T19:37:35.404Z,3.40
2023-04-05T19:40:02.832Z,1.77
2023-04-05T19:42:29.775Z,2.00
2023-04-05T19:44:58.329Z,1.60
2023-04-05T19:47:26.476Z,1.60
2023-04-05T19:49:58.868Z,1.47
2023-04-05T19:52:47.865Z,1.80
2023-04-05T19:55:35.085Z,2.40
2023-04-05T19:58:07.293Z,2.50
2023-04-05T20:00:41.315Z,2.50
2023-04-05T20:03:40.899Z,1.73
2023-04-05T20:06:13.441Z,2.93
2023-04-05T20:08:42.401Z,3.87
2023-04-05T20:11:18.238Z,2.37
2023-04-05T20:13:50.619Z,1.83
2023-04-05T20:16:18.663Z,1.80
2023-04-05T20:18:47.224Z,1.20
2023-04-05T20:21:15.021Z,1.50
2023-04-05T20:23:43.920Z,1.53
2023-04-05T20:26:16.047Z,1.73
2023-04-05T20:28:50.083Z,1.57
2023-04-05T20:31:24.391Z,1.60
2023-04-05T20:34:10.940Z,1.50
2023-04-05T20:36:43.600Z,1.37
2023-04-05T20:39:10.798Z,1.60
2023-04-05T20:41:37.861Z,1.60
2023-04-05T20:44:04.924Z,1.67
2023-04-05T20:46:32.413Z,1.30
2023-04-05T20:48:59.542Z,1.50
2023-04-05T20:51:26.676Z,1.60
2023-04-05T20:53:53.877Z,1.80
2023-04-05T20:56:20.921Z,3.47
2023-04-05T20:58:47.980Z,1.60
2023-04-05T21:01:15.655Z,1.70
2023-04-05T21:03:43.073Z,1.47
2023-04-05T21:06:10.697Z,1.30
2023-04-05T21:08:39.974Z,1.40
2023-04-05T21:11:07.886Z,1.33
2023-04-05T21:13:35.780Z,1.03
2023-04-05T21:16:02.917Z,1.50
2023-04-05T21:18:30.114Z,1.77
2023-04-05T21:20:57.104Z,1.90
2023-04-05T21:23:28.485Z,2.50
2023-04-05T21:25:56.568Z,4.77
2023-04-05T21:28:24.770Z,8.47
2023-04-05T21:30:52.313Z,9.97
2023-04-05T21:33:19.795Z,4.40
2023-04-05T21:35:46.902Z,2.43
2023-04-05T21:38:15.826Z,2.40
2023-04-05T21:40:44.834Z,1.80
2023-04-05T21:43:13.253Z,2.53
2023-04-05T21:45:40.493Z,4.10
2023-04-05T21:48:07.661Z,3.43
2023-04-05T21:50:34.756Z,3.20
2023-04-05T21:53:01.746Z,2.10
2023-04-05T21:55:28.824Z,2.23
2023-04-05T21:57:55.966Z,3.13
2023-04-05T22:00:23.639Z,3.10
2023-04-05T22:02:50.935Z,2.47
2023-04-05T22:05:29.532Z,2.63
2023-04-05T22:08:03.871Z,2.40
2023-04-05T22:10:31.154Z,2.20
2023-04-05T22:12:58.128Z,2.27
2023-04-05T22:15:25.280Z,1.80
2023-04-05T22:17:52.318Z,1.30
2023-04-05T22:20:19.342Z,1.70
2023-04-05T22:22:46.310Z,1.77
2023-04-05T22:25:13.324Z,1.67
2023-04-05T22:27:40.466Z,1.90
2023-04-05T22:30:08.550Z,1.43
2023-04-05T22:32:36.209Z,2.03
2023-04-05T22:35:04.600Z,2.00
2023-04-05T22:37:36.570Z,1.90
2023-04-05T22:40:04.560Z,1.97
2023-04-05T22:42:31.656Z,1.67
2023-04-05T22:44:58.634Z,1.50
2023-04-05T22:47:26.093Z,2.10
2023-04-05T22:49:53.244Z,1.70
2023-04-05T22:52:20.504Z,2.10
2023-04-05T22:54:47.607Z,1.80
2023-04-05T22:57:14.623Z,2.40
2023-04-05T22:59:41.684Z,2.10
2023-04-05T23:02:09.631Z,1.90
2023-04-05T23:04:36.671Z,1.90
2023-04-05T23:07:03.706Z,2.00
2023-04-05T23:09:30.692Z,2.10
2023-04-05T23:11:57.682Z,2.10
2023-04-05T23:14:24.645Z,2.03
2023-04-05T23:16:51.587Z,1.70
2023-04-05T23:19:18.568Z,2.03
2023-04-05T23:21:45.519Z,2.17
2023-04-05T23:24:12.621Z,1.93
2023-04-05T23:26:39.563Z,1.63
2023-04-05T23:29:06.999Z,2.03
2023-04-05T23:31:34.352Z,2.10
2023-04-05T23:34:01.414Z,1.97
2023-04-05T23:36:28.896Z,1.67
2023-04-05T23:38:56.122Z,1.77
2023-04-05T23:41:23.133Z,2.37
2023-04-05T23:43:50.550Z,2.10
2023-04-05T23:46:17.548Z,2.43
2023-04-05T23:48:44.756Z,2.20
2023-04-05T23:51:11.804Z,2.50
2023-04-05T23:53:38.751Z,2.10
2023-04-05T23:56:06.259Z,2.20
2023-04-05T23:58:33.203Z,2.00
